Barton, North Dakota
Current Conditions -  °F | °C
As of 8:15 AM on Sunday 25 Jan 2015 (Local Time) from KRUG Reporting Station
Overcast Overcast  
Wind Chill:   Ceiling: 600
Heat Index: 16°   Visibility: 10mi
Dew Point: 14°   Wind: 5mph
Humidity: 93%   Direction: 120°ESE
Pressure: 29.99"   Gusts: NA
Location:  48.5496°N, 100.255°W
Report Text: KRUG 251415Z AUTO 12004KT 10SM OVC006 M09/M10 A2999 RMK AO2
Loading
Personal Weather Stations






























Interactive Weather Map New forecast layout! Learn more

10-Day Weather Forecast

Advertisements
Track Severe Weather on mobile